Time;durP1;ratioP1;P1;durP2;ratioP2;P2;SDS_P1;SDS_P2;PMS_P1;PMS_P2;Temp;Humidity;BMP_temperature;BMP_pressure;BME280_temperature;BME280_humidity;BME280_pressure;Samples;Min_cycle;Max_cycle;Signal;HPM_P1;HPM_P2
2022/09/11 00:00:33;;;;;;;13.07;3.50;;;25.00;75.70;;;;;;5017262;28;20098;-71
2022/09/11 00:02:59;;;;;;;16.70;3.35;;;25.00;76.00;;;;;;5034882;28;20025;-70
2022/09/11 00:05:24;;;;;;;12.77;3.33;;;25.00;75.80;;;;;;5034857;28;20332;-69
2022/09/11 00:07:51;;;;;;;15.95;2.92;;;25.00;76.10;;;;;;5034819;28;20061;-69
2022/09/11 00:10:17;;;;;;;15.52;3.13;;;25.00;76.10;;;;;;5017743;28;20540;-68
2022/09/11 00:12:43;;;;;;;17.02;3.22;;;24.90;76.20;;;;;;5037837;28;20029;-68
2022/09/11 00:15:10;;;;;;;13.70;3.00;;;24.90;76.30;;;;;;5037599;28;20095;-69
2022/09/11 00:17:36;;;;;;;16.60;4.13;;;24.80;76.40;;;;;;5035223;28;20040;-73
2022/09/11 00:20:03;;;;;;;14.85;3.63;;;24.80;76.00;;;;;;5034809;28;20018;-69
2022/09/11 00:22:29;;;;;;;14.27;3.97;;;24.80;76.10;;;;;;5016788;28;20037;-69
2022/09/11 00:24:58;;;;;;;14.60;3.92;;;24.80;75.70;;;;;;5034538;28;20021;-69
2022/09/11 00:27:24;;;;;;;19.17;4.53;;;24.80;75.80;;;;;;5034456;28;20051;-69
2022/09/11 00:29:50;;;;;;;15.77;3.92;;;24.80;75.40;;;;;;5034392;28;20041;-68
2022/09/11 00:32:17;;;;;;;14.68;4.18;;;24.90;75.50;;;;;;5034647;28;20029;-69
2022/09/11 00:34:45;;;;;;;16.40;4.32;;;24.80;75.30;;;;;;5034763;28;20386;-72
2022/09/11 00:37:12;;;;;;;19.15;3.85;;;24.80;75.50;;;;;;5034485;28;20033;-72
2022/09/11 00:39:37;;;;;;;12.32;3.58;;;24.80;75.50;;;;;;5034412;28;20034;-75
2022/09/11 00:42:04;;;;;;;18.73;4.60;;;24.80;75.50;;;;;;5034418;28;20382;-74
2022/09/11 00:44:29;;;;;;;14.88;3.60;;;24.80;75.50;;;;;;5034224;28;20160;-75
2022/09/11 00:46:59;;;;;;;16.48;3.58;;;24.80;75.30;;;;;;5033804;28;20526;-75
2022/09/11 00:49:43;;;;;;;14.48;3.55;;;24.80;75.40;;;;;;5034196;28;20525;-73
2022/09/11 00:52:15;;;;;;;15.65;3.63;;;24.80;75.40;;;;;;5034193;28;20025;-73
2022/09/11 00:54:48;;;;;;;13.32;3.60;;;24.80;75.50;;;;;;5033963;28;20021;-73
2022/09/11 00:57:17;;;;;;;12.30;3.22;;;24.80;75.50;;;;;;5034221;28;20017;-72
2022/09/11 00:59:46;;;;;;;12.88;3.03;;;24.70;75.60;;;;;;5034198;28;20481;-76
2022/09/11 01:02:15;;;;;;;16.27;2.97;;;24.70;75.60;;;;;;5034085;28;20025;-75
2022/09/11 01:04:41;;;;;;;14.93;3.33;;;24.70;76.00;;;;;;5033952;28;20025;-76
2022/09/11 01:07:09;;;;;;;15.27;3.03;;;24.70;76.00;;;;;;5034068;28;20040;-74
2022/09/11 01:09:34;;;;;;;11.07;2.85;;;24.70;76.00;;;;;;5033833;28;20072;-76
2022/09/11 01:12:18;;;;;;;14.65;3.20;;;24.70;76.40;;;;;;5034336;28;20033;-73
2022/09/11 01:15:12;;;;;;;17.17;3.63;;;24.70;76.20;;;;;;5034032;28;20025;-75
2022/09/11 01:17:54;;;;;;;11.55;3.38;;;24.70;76.20;;;;;;5033704;28;20108;-68
2022/09/11 01:20:58;;;;;;;10.82;2.90;;;24.70;76.20;;;;;;5033473;28;20494;-73
2022/09/11 01:23:56;;;;;;;16.60;3.30;;;24.60;76.30;;;;;;5033565;28;20132;-76
2022/09/11 01:26:31;;;;;;;14.30;3.10;;;24.70;76.40;;;;;;5021849;28;20099;-74
2022/09/11 01:29:19;;;;;;;13.82;2.78;;;24.60;76.30;;;;;;5033849;28;20040;-70
2022/09/11 01:32:18;;;;;;;15.65;3.13;;;24.50;76.10;;;;;;5033384;28;20052;-74
2022/09/11 01:35:05;;;;;;;15.75;2.90;;;24.50;76.50;;;;;;5029489;28;20034;-74
2022/09/11 01:37:41;;;;;;;11.98;3.20;;;24.50;76.20;;;;;;5032181;28;20036;-75
2022/09/11 01:40:32;;;;;;;18.38;2.92;;;24.50;76.40;;;;;;5032353;28;20026;-76
2022/09/11 01:43:05;;;;;;;12.60;2.95;;;24.60;76.20;;;;;;5033700;28;20026;-75
2022/09/11 01:45:33;;;;;;;17.10;3.13;;;24.60;76.50;;;;;;5033662;28;20076;-75
2022/09/11 01:47:59;;;;;;;13.60;3.10;;;24.60;76.40;;;;;;5034110;28;20037;-77
2022/09/11 01:50:29;;;;;;;11.65;2.97;;;24.60;76.40;;;;;;5033072;28;20021;-76
2022/09/11 01:53:02;;;;;;;13.57;3.10;;;24.50;76.40;;;;;;5033328;28;20109;-77
2022/09/11 01:55:38;;;;;;;13.10;3.00;;;24.50;76.50;;;;;;5032814;28;20501;-69
2022/09/11 01:58:14;;;;;;;15.73;3.20;;;24.50;76.70;;;;;;5033007;28;20033;-69
2022/09/11 02:00:44;;;;;;;17.27;3.70;;;24.50;76.80;;;;;;5014558;28;20363;-71
2022/09/11 02:03:16;;;;;;;20.42;3.67;;;24.40;76.80;;;;;;5032911;28;20061;-69
2022/09/11 02:05:47;;;;;;;16.77;3.72;;;24.40;76.70;;;;;;5032574;28;20101;-68
2022/09/11 02:08:18;;;;;;;12.40;2.78;;;24.40;76.90;;;;;;5014860;28;20064;-68
2022/09/11 02:10:56;;;;;;;17.45;3.25;;;24.40;77.00;;;;;;5032614;28;20052;-70
2022/09/11 02:13:43;;;;;;;14.43;3.20;;;24.40;77.60;;;;;;5032773;28;20029;-67
2022/09/11 02:16:15;;;;;;;11.95;2.90;;;24.40;77.60;;;;;;5032780;28;20029;-70
2022/09/11 02:18:50;;;;;;;13.38;3.33;;;24.40;77.90;;;;;;5035139;28;20032;-69
2022/09/11 02:21:16;;;;;;;12.23;3.15;;;24.30;76.90;;;;;;5035226;28;20063;-69
2022/09/11 02:23:42;;;;;;;13.60;3.63;;;24.30;77.10;;;;;;5032612;28;20445;-68
2022/09/11 02:26:11;;;;;;;16.23;3.50;;;24.30;77.10;;;;;;5032935;28;20040;-71
2022/09/11 02:28:36;;;;;;;16.75;3.08;;;24.30;77.00;;;;;;5032587;28;20025;-68
2022/09/11 02:31:03;;;;;;;16.92;2.85;;;24.20;76.90;;;;;;5032634;28;20075;-68
2022/09/11 02:33:34;;;;;;;13.80;3.58;;;24.20;77.00;;;;;;5032477;28;20034;-68
2022/09/11 02:36:30;;;;;;;13.57;2.80;;;24.20;76.90;;;;;;5032687;28;20402;-68
2022/09/11 02:39:17;;;;;;;16.98;3.22;;;24.10;77.50;;;;;;5032452;28;20038;-68
2022/09/11 02:41:58;;;;;;;16.88;3.10;;;24.10;77.80;;;;;;5032718;28;20022;-70
2022/09/11 02:44:48;;;;;;;13.00;2.85;;;24.10;77.60;;;;;;5032439;28;20033;-68
2022/09/11 02:47:35;;;;;;;13.35;2.65;;;24.10;76.70;;;;;;5032278;28;20056;-67
2022/09/11 02:50:12;;;;;;;11.80;2.90;;;24.00;77.40;;;;;;5032745;28;20152;-70
2022/09/11 02:53:10;;;;;;;13.55;2.95;;;24.00;76.70;;;;;;5032442;28;20475;-68
2022/09/11 02:55:41;;;;;;;13.23;2.83;;;23.90;77.20;;;;;;5009072;28;20048;-69
2022/09/11 02:58:19;;;;;;;12.73;2.60;;;23.90;77.30;;;;;;5034153;28;20107;-68
2022/09/11 03:00:46;;;;;;;17.85;3.28;;;23.90;77.10;;;;;;5033136;28;20022;-68
2022/09/11 03:03:11;;;;;;;15.27;3.20;;;23.80;76.50;;;;;;5032357;28;20029;-68
2022/09/11 03:05:39;;;;;;;10.50;2.67;;;23.70;76.30;;;;;;5014317;28;20037;-68
2022/09/11 03:08:06;;;;;;;19.38;3.45;;;23.70;76.60;;;;;;5031934;28;20135;-68
2022/09/11 03:10:33;;;;;;;11.88;3.05;;;23.70;76.90;;;;;;5033252;28;20113;-71
2022/09/11 03:12:59;;;;;;;10.90;2.83;;;23.60;76.50;;;;;;5036053;28;20431;-69
2022/09/11 03:15:26;;;;;;;13.63;3.00;;;23.60;76.70;;;;;;5035837;28;20018;-68
2022/09/11 03:17:52;;;;;;;10.10;2.58;;;23.60;76.70;;;;;;5035694;28;20029;-68
2022/09/11 03:20:19;;;;;;;14.90;3.72;;;23.50;76.60;;;;;;5034368;28;20422;-70
2022/09/11 03:22:44;;;;;;;11.13;3.00;;;23.40;76.70;;;;;;5035736;28;20124;-69
2022/09/11 03:25:10;;;;;;;14.32;3.13;;;23.40;77.00;;;;;;5035433;28;20527;-70
2022/09/11 03:27:38;;;;;;;15.27;3.55;;;23.40;76.60;;;;;;5035610;28;20033;-71
2022/09/11 03:30:05;;;;;;;17.20;3.30;;;23.40;76.70;;;;;;5035800;28;20033;-68
2022/09/11 03:32:32;;;;;;;13.98;3.03;;;23.30;77.00;;;;;;5035549;28;20075;-69
2022/09/11 03:34:58;;;;;;;14.75;3.00;;;23.30;76.80;;;;;;5035640;28;20073;-69
2022/09/11 03:37:25;;;;;;;11.52;2.65;;;23.30;76.60;;;;;;5035400;28;20441;-68
2022/09/11 03:39:53;;;;;;;13.68;2.45;;;23.30;76.60;;;;;;5035307;28;20052;-68
2022/09/11 03:42:19;;;;;;;13.13;3.13;;;23.30;76.80;;;;;;5035385;28;20459;-68
2022/09/11 03:44:45;;;;;;;13.57;3.03;;;23.30;76.60;;;;;;5035365;28;20037;-71
2022/09/11 03:47:11;;;;;;;13.35;3.25;;;23.20;76.30;;;;;;5035250;28;20501;-69
2022/09/11 03:49:37;;;;;;;16.55;3.33;;;23.20;76.50;;;;;;5035321;28;20022;-73
2022/09/11 03:52:03;;;;;;;14.23;3.13;;;23.20;76.40;;;;;;5035725;28;20429;-72
2022/09/11 03:54:30;;;;;;;12.20;2.60;;;23.30;76.30;;;;;;5034965;28;20026;-68
2022/09/11 03:56:57;;;;;;;8.25;2.50;;;23.30;75.60;;;;;;5035174;28;20147;-68
2022/09/11 03:59:24;;;;;;;12.15;2.55;;;23.20;75.50;;;;;;5035174;28;20037;-68
2022/09/11 04:01:50;;;;;;;9.68;2.83;;;23.20;75.40;;;;;;5034950;28;20022;-68
2022/09/11 04:04:16;;;;;;;9.80;2.60;;;23.20;75.50;;;;;;5035017;28;20022;-69
2022/09/11 04:06:42;;;;;;;11.32;2.78;;;23.20;75.90;;;;;;5034875;28;20116;-73
2022/09/11 04:09:10;;;;;;;14.25;2.33;;;23.10;75.10;;;;;;5034968;28;20411;-74
2022/09/11 04:11:39;;;;;;;11.93;2.60;;;23.10;75.20;;;;;;5034904;28;20030;-75
2022/09/11 04:14:05;;;;;;;10.75;2.33;;;23.10;75.20;;;;;;5034648;28;20482;-75
2022/09/11 04:16:32;;;;;;;14.57;2.95;;;23.10;75.00;;;;;;5034920;28;20083;-68
2022/09/11 04:18:59;;;;;;;9.32;2.35;;;23.20;75.10;;;;;;5034389;28;20018;-68
2022/09/11 04:21:26;;;;;;;9.27;2.45;;;23.10;74.70;;;;;;5034353;28;20398;-68
2022/09/11 04:23:58;;;;;;;10.85;2.10;;;23.10;75.00;;;;;;5033734;28;20125;-67
2022/09/11 04:26:26;;;;;;;9.95;2.50;;;23.10;75.60;;;;;;5034355;28;20044;-69
2022/09/11 04:28:51;;;;;;;15.90;2.95;;;23.00;75.10;;;;;;5034565;28;20026;-69
2022/09/11 04:31:19;;;;;;;8.23;2.10;;;23.00;75.30;;;;;;5036745;28;20040;-67
2022/09/11 04:33:46;;;;;;;12.45;2.58;;;23.00;75.30;;;;;;5035368;28;20084;-67
2022/09/11 04:36:18;;;;;;;14.15;2.78;;;22.90;75.40;;;;;;5034392;28;20107;-68
2022/09/11 04:38:45;;;;;;;7.85;2.42;;;22.90;75.50;;;;;;5034290;28;20030;-67
2022/09/11 04:41:12;;;;;;;12.73;2.45;;;22.90;75.40;;;;;;5034130;28;20356;-69
2022/09/11 04:43:39;;;;;;;7.07;2.30;;;22.80;75.50;;;;;;5034102;28;20130;-68
2022/09/11 04:46:13;;;;;;;11.05;2.10;;;22.90;75.70;;;;;;5033989;28;20053;-66
2022/09/11 04:48:46;;;;;;;11.25;2.80;;;22.90;75.80;;;;;;5034113;28;20029;-68
2022/09/11 04:51:19;;;;;;;15.07;2.47;;;22.90;75.80;;;;;;5034313;28;20467;-68
2022/09/11 04:53:45;;;;;;;18.88;2.47;;;22.90;75.90;;;;;;5033669;28;20032;-67
2022/09/11 04:56:12;;;;;;;13.40;2.92;;;22.90;76.20;;;;;;5034080;28;20021;-68
2022/09/11 04:58:39;;;;;;;12.35;2.55;;;22.90;75.90;;;;;;5034320;28;20439;-69
2022/09/11 05:01:10;;;;;;;12.40;2.70;;;22.90;75.80;;;;;;5034066;28;20096;-68
2022/09/11 05:03:35;;;;;;;11.23;2.20;;;22.90;75.80;;;;;;5033868;28;20029;-68
2022/09/11 05:06:09;;;;;;;12.65;2.60;;;22.90;76.10;;;;;;5033816;28;20044;-67
2022/09/11 05:08:37;;;;;;;19.70;3.03;;;22.90;75.90;;;;;;5033635;28;20057;-69
2022/09/11 05:11:06;;;;;;;12.30;3.00;;;22.90;75.80;;;;;;5033749;28;20033;-70
2022/09/11 05:13:33;;;;;;;11.25;2.42;;;22.90;75.50;;;;;;5033662;28;20060;-69
2022/09/11 05:16:07;;;;;;;11.43;2.97;;;23.00;75.80;;;;;;5033677;28;20539;-68
2022/09/11 05:18:33;;;;;;;14.13;2.50;;;23.00;75.80;;;;;;5033689;28;20038;-70
2022/09/11 05:21:04;;;;;;;10.38;2.72;;;23.00;76.00;;;;;;5033445;28;20091;-68
2022/09/11 05:23:31;;;;;;;9.00;2.20;;;23.00;76.00;;;;;;5033444;28;20470;-68
2022/09/11 05:26:02;;;;;;;15.95;3.30;;;23.10;75.60;;;;;;5033350;28;20021;-68
2022/09/11 05:28:29;;;;;;;13.07;2.70;;;23.00;75.50;;;;;;5033959;28;20060;-70
2022/09/11 05:30:55;;;;;;;12.82;2.53;;;23.00;75.50;;;;;;5033446;28;20033;-68
2022/09/11 05:33:22;;;;;;;17.55;2.63;;;23.10;75.60;;;;;;5033253;28;20027;-69
2022/09/11 05:35:52;;;;;;;12.07;2.50;;;23.10;75.50;;;;;;5032959;28;20454;-69
2022/09/11 05:38:19;;;;;;;9.95;2.80;;;23.10;75.40;;;;;;5033291;28;20021;-69
2022/09/11 05:40:49;;;;;;;12.63;2.78;;;23.20;75.40;;;;;;5033444;28;20056;-68
2022/09/11 05:43:16;;;;;;;14.43;3.17;;;23.20;75.90;;;;;;5033324;28;20025;-67
2022/09/11 05:45:44;;;;;;;11.40;2.53;;;23.30;74.90;;;;;;5033171;28;20037;-68
2022/09/11 05:48:10;;;;;;;12.65;3.00;;;23.50;75.10;;;;;;5015515;28;20055;-68
2022/09/11 05:50:37;;;;;;;12.00;3.28;;;23.60;74.80;;;;;;5033203;28;20125;-70
2022/09/11 05:53:04;;;;;;;9.90;2.85;;;23.60;74.40;;;;;;5033148;28;20037;-69
2022/09/11 05:55:36;;;;;;;11.73;3.00;;;23.70;74.10;;;;;;5032916;28;20022;-73
2022/09/11 05:58:02;;;;;;;14.23;2.75;;;23.70;74.20;;;;;;5032999;28;20029;-75
2022/09/11 06:00:29;;;;;;;14.00;3.20;;;23.80;74.10;;;;;;5033114;28;20482;-74
2022/09/11 06:02:55;;;;;;;12.65;2.70;;;23.90;73.70;;;;;;5033112;28;20088;-76
2022/09/11 06:05:20;;;;;;;11.90;2.65;;;24.00;73.70;;;;;;5032981;28;20484;-72
2022/09/11 06:07:46;;;;;;;8.65;2.20;;;24.20;73.40;;;;;;5032838;28;20132;-70
2022/09/11 06:10:12;;;;;;;11.05;2.65;;;24.30;73.00;;;;;;5032857;28;20017;-71
2022/09/11 06:12:37;;;;;;;11.15;2.80;;;24.40;72.80;;;;;;5033198;28;20094;-68
2022/09/11 06:15:03;;;;;;;13.38;3.20;;;24.50;72.70;;;;;;5032711;28;20025;-76
2022/09/11 06:17:29;;;;;;;10.07;3.08;;;24.60;72.10;;;;;;5015122;28;20047;-68
2022/09/11 06:19:55;;;;;;;10.15;2.40;;;24.70;71.90;;;;;;5032995;28;20029;-68
2022/09/11 06:22:21;;;;;;;10.55;2.53;;;24.90;71.80;;;;;;5015222;28;20448;-71
2022/09/11 06:24:47;;;;;;;12.90;2.75;;;25.00;71.30;;;;;;5015266;28;20030;-75
2022/09/11 06:27:15;;;;;;;9.07;2.70;;;25.10;70.90;;;;;;5032799;28;20076;-71
2022/09/11 06:29:43;;;;;;;11.15;2.88;;;25.30;70.40;;;;;;5032720;28;20036;-72
2022/09/11 06:32:10;;;;;;;10.82;2.85;;;25.30;70.30;;;;;;5032688;28;20121;-70
2022/09/11 06:34:36;;;;;;;14.07;3.20;;;25.40;70.20;;;;;;5032614;28;20029;-70
2022/09/11 06:37:02;;;;;;;10.05;2.30;;;25.40;69.80;;;;;;5032515;28;20044;-67
2022/09/11 06:39:28;;;;;;;13.20;3.20;;;25.50;69.40;;;;;;5032762;28;20021;-69
2022/09/11 06:41:53;;;;;;;10.45;2.45;;;25.60;69.40;;;;;;5032601;28;20459;-68
2022/09/11 06:44:19;;;;;;;10.13;2.50;;;25.70;69.00;;;;;;5033574;28;20018;-68
2022/09/11 06:46:50;;;;;;;12.77;2.60;;;25.70;68.20;;;;;;5037410;28;20045;-68
2022/09/11 06:49:16;;;;;;;8.82;2.30;;;25.80;68.40;;;;;;5036845;28;20033;-69
2022/09/11 06:51:42;;;;;;;11.88;2.60;;;25.90;67.40;;;;;;5036945;28;20029;-68
2022/09/11 06:54:08;;;;;;;12.20;2.70;;;26.00;67.50;;;;;;5036499;28;20466;-67
2022/09/11 06:56:33;;;;;;;10.30;2.40;;;26.00;67.20;;;;;;5036145;28;20030;-68
2022/09/11 06:58:59;;;;;;;8.48;2.28;;;26.10;67.00;;;;;;5036117;28;20028;-68
2022/09/11 07:01:25;;;;;;;10.27;2.30;;;26.30;66.60;;;;;;5036112;28;20545;-68
2022/09/11 07:03:53;;;;;;;13.15;3.25;;;26.30;65.90;;;;;;5036098;28;20021;-68
2022/09/11 07:06:27;;;;;;;10.93;2.42;;;26.30;65.60;;;;;;5036015;28;20036;-70
2022/09/11 07:09:00;;;;;;;9.48;2.25;;;26.30;65.00;;;;;;5035595;28;20041;-68
2022/09/11 07:11:33;;;;;;;10.02;3.08;;;26.20;65.00;;;;;;5017981;28;20044;-68
2022/09/11 07:14:04;;;;;;;11.95;3.63;;;26.10;65.60;;;;;;5035702;28;20026;-68
2022/09/11 07:16:31;;;;;;;10.63;2.45;;;26.30;65.50;;;;;;5035808;28;20108;-69
2022/09/11 07:18:57;;;;;;;8.98;1.95;;;26.30;64.90;;;;;;5035681;28;20081;-68
2022/09/11 07:21:25;;;;;;;9.57;2.05;;;26.30;64.70;;;;;;5034432;28;20029;-69
2022/09/11 07:23:53;;;;;;;9.10;2.30;;;26.30;64.90;;;;;;5035613;28;20067;-68
2022/09/11 07:26:20;;;;;;;12.02;2.17;;;26.30;64.90;;;;;;5035470;28;20037;-69
2022/09/11 07:28:50;;;;;;;10.57;2.83;;;26.30;64.70;;;;;;5035661;28;20029;-68
2022/09/11 07:31:19;;;;;;;11.90;2.65;;;26.30;64.60;;;;;;5035589;28;20080;-68
2022/09/11 07:33:46;;;;;;;9.55;2.83;;;26.30;64.70;;;;;;5035314;28;20026;-70
2022/09/11 07:36:15;;;;;;;8.60;2.63;;;26.40;64.50;;;;;;5035830;28;20006;-68
2022/09/11 07:38:42;;;;;;;9.02;2.25;;;26.50;64.50;;;;;;5035392;28;20028;-68
2022/09/11 07:41:09;;;;;;;9.80;2.80;;;26.40;64.40;;;;;;5035381;28;20017;-68
2022/09/11 07:43:40;;;;;;;8.45;2.28;;;26.50;64.20;;;;;;5035120;28;20548;-70
2022/09/11 07:46:08;;;;;;;9.57;2.67;;;26.60;64.20;;;;;;5035187;28;20449;-67
2022/09/11 07:48:35;;;;;;;9.27;2.30;;;26.60;63.90;;;;;;5035286;28;20040;-70
2022/09/11 07:51:03;;;;;;;9.05;2.08;;;26.50;64.20;;;;;;5035044;28;20451;-70
2022/09/11 07:53:34;;;;;;;9.98;2.42;;;26.40;64.40;;;;;;5034811;28;20104;-68
2022/09/11 07:56:22;;;;;;;11.95;2.22;;;26.40;64.60;;;;;;5034949;28;20474;-68
2022/09/11 07:58:49;;;;;;;10.55;2.20;;;26.30;64.70;;;;;;5033774;28;20104;-70
2022/09/11 08:01:18;;;;;;;12.45;2.35;;;26.30;64.80;;;;;;5034942;28;20399;-68
2022/09/11 08:03:44;;;;;;;6.22;1.77;;;26.20;64.80;;;;;;5034962;28;20025;-69
2022/09/11 08:06:16;;;;;;;9.25;2.38;;;26.20;64.60;;;;;;5034874;28;20044;-69
2022/09/11 08:08:43;;;;;;;11.20;2.28;;;26.10;65.10;;;;;;5034622;28;20034;-69
2022/09/11 08:11:15;;;;;;;9.25;2.20;;;26.10;65.10;;;;;;5034716;28;20036;-72
2022/09/11 08:13:41;;;;;;;11.50;2.28;;;26.10;65.00;;;;;;5034346;28;20033;-71
2022/09/11 08:16:07;;;;;;;8.95;2.08;;;26.10;64.90;;;;;;5034557;28;20052;-69
2022/09/11 08:18:34;;;;;;;9.15;2.58;;;26.10;64.80;;;;;;5034571;28;20072;-68
2022/09/11 08:21:05;;;;;;;14.15;2.40;;;26.10;64.90;;;;;;5034713;28;20040;-67
2022/09/11 08:23:32;;;;;;;10.93;2.50;;;26.10;64.80;;;;;;5033846;28;20163;-71
2022/09/11 08:26:10;;;;;;;10.93;2.38;;;26.20;65.00;;;;;;5034684;28;20116;-69
2022/09/11 08:28:37;;;;;;;10.45;2.65;;;26.20;64.90;;;;;;5034781;28;20494;-70
2022/09/11 08:31:05;;;;;;;12.48;2.35;;;26.30;64.60;;;;;;5034224;28;20021;-68
2022/09/11 08:33:34;;;;;;;7.15;2.50;;;26.30;64.70;;;;;;5034044;28;20102;-68
2022/09/11 08:36:03;;;;;;;11.57;2.72;;;26.30;64.60;;;;;;5033565;28;20025;-71
2022/09/11 08:38:30;;;;;;;13.48;2.25;;;26.20;64.50;;;;;;5033473;28;20036;-69
2022/09/11 08:40:57;;;;;;;12.00;3.08;;;26.30;64.70;;;;;;5034104;28;20068;-69
2022/09/11 08:43:32;;;;;;;12.10;3.78;;;26.30;64.80;;;;;;5033661;28;20026;-69
2022/09/11 08:46:06;;;;;;;11.27;2.72;;;26.30;64.50;;;;;;5033770;28;20438;-69
2022/09/11 08:48:45;;;;;;;10.45;2.88;;;26.40;64.30;;;;;;5033857;28;20475;-70
2022/09/11 08:51:15;;;;;;;9.88;2.22;;;26.30;64.40;;;;;;5033709;28;20363;-68
2022/09/11 08:53:41;;;;;;;14.27;2.70;;;26.40;64.10;;;;;;5033720;28;20028;-68
2022/09/11 08:56:18;;;;;;;13.93;2.80;;;26.40;63.90;;;;;;5034017;28;20104;-68
2022/09/11 08:58:56;;;;;;;10.82;2.40;;;26.40;64.00;;;;;;5033612;28;20467;-68
2022/09/11 09:01:37;;;;;;;13.35;2.63;;;26.50;64.00;;;;;;5033551;28;20436;-68
2022/09/11 09:04:18;;;;;;;11.70;3.05;;;26.60;63.80;;;;;;5033509;28;20107;-68
2022/09/11 09:06:56;;;;;;;12.57;2.60;;;26.60;63.70;;;;;;5033338;28;20040;-69
2022/09/11 09:09:54;;;;;;;12.77;2.20;;;26.60;63.60;;;;;;5033105;28;20045;-68
2022/09/11 09:12:34;;;;;;;14.35;2.40;;;26.70;63.60;;;;;;5033122;28;20112;-70
2022/09/11 09:15:18;;;;;;;7.75;2.17;;;26.70;63.40;;;;;;5031819;28;20043;-70
2022/09/11 09:18:14;;;;;;;9.10;2.25;;;26.80;63.10;;;;;;5033079;28;20212;-71
2022/09/11 09:21:02;;;;;;;15.40;2.80;;;26.90;62.70;;;;;;5033500;28;20100;-72
2022/09/11 09:23:35;;;;;;;12.43;2.58;;;26.90;63.10;;;;;;5015227;28;20029;-72
2022/09/11 09:26:01;;;;;;;13.60;2.90;;;27.00;62.10;;;;;;5031768;28;20038;-70
2022/09/11 09:28:42;;;;;;;13.27;2.60;;;27.10;61.80;;;;;;5033166;28;20032;-73
2022/09/11 09:31:11;;;;;;;12.32;2.70;;;27.20;61.30;;;;;;5032946;28;20032;-69
2022/09/11 09:33:56;;;;;;;11.10;2.40;;;27.30;60.90;;;;;;5033295;28;20485;-70
2022/09/11 09:36:45;;;;;;;9.80;1.98;;;27.30;60.00;;;;;;5033478;28;20542;-68
2022/09/11 09:39:16;;;;;;;13.90;2.83;;;27.30;60.00;;;;;;5015513;28;20026;-69
2022/09/11 09:42:09;;;;;;;10.63;2.30;;;27.40;59.80;;;;;;5032968;28;20024;-69
2022/09/11 09:44:49;;;;;;;7.43;1.75;;;27.40;59.10;;;;;;5033049;28;20025;-71
2022/09/11 09:47:15;;;;;;;12.32;2.30;;;27.40;59.00;;;;;;5032853;28;20041;-69
2022/09/11 09:49:42;;;;;;;13.05;2.45;;;27.50;58.70;;;;;;5032977;28;20028;-70
2022/09/11 09:52:23;;;;;;;12.98;2.13;;;27.50;58.80;;;;;;5032950;28;20100;-69
2022/09/11 09:55:04;;;;;;;14.82;3.33;;;27.50;59.20;;;;;;5032750;28;20029;-68
2022/09/11 09:57:34;;;;;;;12.70;2.35;;;27.50;59.20;;;;;;5032921;28;20017;-69
2022/09/11 10:00:14;;;;;;;9.10;2.10;;;27.60;59.20;;;;;;5014689;28;20459;-67
2022/09/11 10:02:41;;;;;;;11.55;2.58;;;27.60;59.20;;;;;;5014873;28;20036;-69
2022/09/11 10:05:35;;;;;;;13.02;2.67;;;27.70;59.20;;;;;;5032912;28;20083;-70
2022/09/11 10:08:06;;;;;;;11.07;2.13;;;27.80;58.90;;;;;;5032453;28;20049;-71
2022/09/11 10:10:38;;;;;;;11.38;2.10;;;27.90;59.20;;;;;;5032639;28;20033;-68
2022/09/11 10:13:21;;;;;;;11.70;2.60;;;27.90;59.20;;;;;;5033131;28;20486;-71
2022/09/11 10:15:52;;;;;;;12.15;2.80;;;27.90;59.30;;;;;;5032703;28;20120;-70
2022/09/11 10:18:44;;;;;;;14.60;2.80;;;27.90;59.60;;;;;;5033013;28;20108;-69
2022/09/11 10:21:10;;;;;;;11.30;2.83;;;27.90;59.40;;;;;;5034609;28;20029;-70
2022/09/11 10:23:53;;;;;;;11.73;2.58;;;27.90;59.20;;;;;;5036522;28;20352;-71
2022/09/11 10:26:27;;;;;;;8.68;2.53;;;27.90;58.00;;;;;;5036519;28;20120;-70
2022/09/11 10:28:57;;;;;;;8.55;2.20;;;27.90;58.10;;;;;;5036518;28;20041;-69
2022/09/11 10:31:24;;;;;;;6.75;1.83;;;28.00;57.70;;;;;;5036607;28;20072;-70
2022/09/11 10:33:57;;;;;;;9.23;2.55;;;28.10;56.80;;;;;;5036592;28;20429;-67
2022/09/11 10:36:25;;;;;;;;;;;28.10;55.50;;;;;;5036838;28;20705;-70
2022/09/11 10:38:52;;;;;;;9.38;1.90;;;28.10;54.40;;;;;;5036545;28;20019;-69
2022/09/11 10:41:25;;;;;;;7.78;1.80;;;28.20;54.50;;;;;;5036049;28;20037;-68
2022/09/11 10:44:14;;;;;;;10.13;1.58;;;28.20;52.60;;;;;;5036113;28;20112;-69
2022/09/11 10:46:42;;;;;;;9.20;2.47;;;28.30;51.40;;;;;;5036255;28;20041;-72
2022/09/11 10:49:19;;;;;;;11.00;1.95;;;28.40;53.00;;;;;;5035977;28;20018;-73
2022/09/11 10:52:07;;;;;;;8.02;2.15;;;28.50;51.40;;;;;;5036145;28;20106;-70
2022/09/11 10:55:05;;;;;;;7.90;1.95;;;28.60;50.20;;;;;;5036141;28;20030;-74
2022/09/11 10:57:52;;;;;;;6.85;1.70;;;28.60;50.90;;;;;;5035932;28;20356;-73
2022/09/11 11:00:26;;;;;;;7.00;1.63;;;28.70;47.60;;;;;;5035660;28;20044;-68
2022/09/11 11:02:54;;;;;;;5.80;1.50;;;28.60;47.70;;;;;;5035505;28;20033;-69
2022/09/11 11:05:30;;;;;;;6.55;1.60;;;28.60;48.60;;;;;;5035364;28;20025;-69
2022/09/11 11:08:28;;;;;;;9.13;2.22;;;28.70;47.10;;;;;;5035552;28;20076;-69
2022/09/11 11:11:13;;;;;;;6.30;1.65;;;28.70;46.30;;;;;;5035635;28;20025;-68
2022/09/11 11:14:07;;;;;;;5.43;1.52;;;28.70;47.50;;;;;;5035653;28;20033;-68
2022/09/11 11:16:45;;;;;;;4.60;1.60;;;28.80;45.30;;;;;;5035864;28;20028;-69
2022/09/11 11:19:24;;;;;;;8.35;1.80;;;29.00;46.40;;;;;;5035493;28;20463;-68
2022/09/11 11:22:05;;;;;;;6.78;1.73;;;29.00;46.50;;;;;;5035459;28;20316;-71
2022/09/11 11:24:49;;;;;;;5.70;1.50;;;29.00;46.70;;;;;;5035131;28;20030;-68
2022/09/11 11:27:42;;;;;;;8.85;2.00;;;29.10;46.70;;;;;;5035195;28;20049;-68
2022/09/11 11:30:10;;;;;;;6.47;1.52;;;29.20;45.50;;;;;;5035110;28;20037;-68
2022/09/11 11:33:03;;;;;;;9.85;3.60;;;29.20;46.10;;;;;;5034938;28;20060;-68
2022/09/11 11:36:02;;;;;;;9.82;1.80;;;29.30;46.30;;;;;;5034977;28;20045;-69
2022/09/11 11:38:38;;;;;;;8.32;1.70;;;29.40;46.40;;;;;;4988298;28;20386;-72
2022/09/11 11:41:31;;;;;;;7.97;1.52;;;29.50;45.50;;;;;;5017130;28;20093;-72
2022/09/11 11:44:01;;;;;;;8.23;2.10;;;29.50;43.80;;;;;;5017035;28;20454;-72
2022/09/11 11:46:36;;;;;;;4.28;1.25;;;29.60;44.50;;;;;;5035481;28;20084;-73
2022/09/11 11:49:09;;;;;;;6.07;2.08;;;29.60;44.00;;;;;;5034993;28;20029;-71
2022/09/11 11:52:14;;;;;;;6.00;1.55;;;29.70;44.10;;;;;;5033967;28;20390;-69
2022/09/11 11:54:57;;;;;;;10.23;1.88;;;29.70;42.50;;;;;;5033565;28;20109;-67
2022/09/11 11:57:30;;;;;;;10.27;1.85;;;29.80;44.10;;;;;;5035354;28;20083;-68
2022/09/11 12:00:07;;;;;;;9.02;1.95;;;29.80;44.70;;;;;;5034866;28;20382;-70
2022/09/11 12:02:57;;;;;;;7.50;1.70;;;29.90;43.90;;;;;;5034625;28;20026;-68
2022/09/11 12:05:32;;;;;;;7.80;1.70;;;29.90;45.00;;;;;;5034897;28;20084;-75
2022/09/11 12:07:58;;;;;;;7.95;1.65;;;29.90;45.10;;;;;;5034687;28;20133;-71
2022/09/11 12:10:36;;;;;;;6.72;1.67;;;30.00;45.30;;;;;;5034821;28;20025;-70
2022/09/11 12:13:06;;;;;;;8.07;1.90;;;30.00;44.80;;;;;;5034375;28;20030;-74
2022/09/11 12:15:35;;;;;;;6.53;1.55;;;30.00;44.90;;;;;;5034583;28;20017;-73
2022/09/11 12:18:09;;;;;;;6.22;1.67;;;30.00;44.80;;;;;;5034554;28;20022;-69
2022/09/11 12:20:43;;;;;;;6.97;1.55;;;29.90;43.10;;;;;;5034459;28;20091;-72
2022/09/11 12:23:33;;;;;;;8.48;2.08;;;29.80;44.10;;;;;;5034335;28;20017;-72
2022/09/11 12:26:24;;;;;;;7.40;1.75;;;29.80;43.40;;;;;;5034456;28;20065;-68
2022/09/11 12:29:10;;;;;;;8.07;1.98;;;30.00;42.90;;;;;;5034457;28;20025;-69
2022/09/11 12:31:51;;;;;;;6.50;1.92;;;30.00;44.20;;;;;;5034692;28;20163;-68
2022/09/11 12:34:39;;;;;;;6.60;2.10;;;30.10;44.30;;;;;;5034155;28;20029;-70
2022/09/11 12:37:13;;;;;;;5.30;1.73;;;30.20;42.90;;;;;;5034051;28;20083;-70
2022/09/11 12:39:53;;;;;;;6.93;1.85;;;30.20;43.80;;;;;;5034339;28;20021;-69
2022/09/11 12:42:22;;;;;;;5.55;1.83;;;30.30;42.20;;;;;;5034541;28;20471;-71
2022/09/11 12:44:47;;;;;;;10.95;2.42;;;30.30;42.90;;;;;;5033469;28;20467;-70
2022/09/11 12:47:38;;;;;;;6.38;1.98;;;30.40;43.30;;;;;;5034102;28;20036;-68
2022/09/11 12:50:18;;;;;;;12.70;1.80;;;30.30;43.30;;;;;;5026718;28;20038;-73
2022/09/11 12:52:43;;;;;;;7.35;1.80;;;30.30;43.80;;;;;;5016301;28;20030;-69
2022/09/11 12:55:42;;;;;;;5.32;1.70;;;30.40;44.00;;;;;;5033788;28;20036;-68
2022/09/11 12:58:19;;;;;;;8.30;2.40;;;30.40;43.50;;;;;;5005070;28;20035;-73
2022/09/11 13:00:50;;;;;;;7.40;2.45;;;30.50;42.60;;;;;;5033953;28;20040;-69
2022/09/11 13:03:19;;;;;;;10.02;2.20;;;30.60;43.80;;;;;;5016118;28;20025;-68
2022/09/11 13:06:02;;;;;;;7.22;1.70;;;30.60;43.50;;;;;;5033794;28;20466;-68
2022/09/11 13:08:30;;;;;;;;;;;30.70;42.10;;;;;;5034007;28;20041;-71